Weather History for KMHV - March, 2013

Change the Weather History Date:

Friday, March 22, 2013

  Actual Average Record
Temperature  
Mean Temperature 57 °F -  
Max Temperature 66 °F 68 °F 84 °F (2004)
Min Temperature 48 °F 41 °F 31 °F (1966)
Degree Days  
Heating Degree Days 8    
Growing Degree Days 7 (Base 50)    
Moisture  
Dew Point 32 °F    
Average Humidity 44    
Maximum Humidity 62    
Minimum Humidity 26    
Precipitation  
Precipitation 0.00 in - - ()
Sea Level Pressure  
Sea Level Pressure 29.86 in    
Wind  
Wind Speed 31 mph (West)    
Max Wind Speed 48 mph    
Max Gust Speed 56 mph    
Visibility 10 miles    
Events      
Averages and records for this station are not official NWS values.
T = Trace of Precipitation, MM = Missing Value Source: NWS Daily Summary

Daily Weather History Graph

Daily Weather History Graph

Search for Another Location

Airport or City:

Trip Planner

Search our weather history database for the weather conditions in past years. The results will help you decide how hot, cold, wet, or windy it might be!

Date:

Astronomy

Mar. 22, 2013 Rise Set
Actual Time 6:52 AM PDT 7:06 PM PDT
Civil Twilight 6:27 AM PDT 7:31 PM PDT
Nautical Twilight 5:58 AM PDT 8:01 PM PDT
Astronomical Twilight 5:28 AM PDT 8:31 PM PDT
Moon 2:46 PM PDT (3/22) 3:46 AM PDT (3/22)
Length of Visible Light 13h 03m
Length of Day
12h 13m
Waxing Gibbous, 78% of the Moon is Illuminated
Mar 22
Waxing Gibbous
Mar 27
Full
Apr 2
Last Quarter
Apr 10
New
Apr 18
First Quarter

Hourly Weather History & Observations

Time (PDT) Temp. Dew Point Humidity Pressure Visibility Wind Dir Wind Speed Gust Speed Precip Events Conditions
12:15 AM 51.8 °F 35.6 °F 54% 29.80 in 10.0 mi West 38.0 mph 55.2 mph N/A   Clear
12:35 AM 51.8 °F 35.6 °F 54% 29.79 in 10.0 mi West 38.0 mph 52.9 mph N/A   Clear
12:55 AM 50.0 °F 35.6 °F 58% 29.80 in 10.0 mi West 40.3 mph 51.8 mph N/A   Clear
1:15 AM 50.0 °F 37.4 °F 62% 29.80 in 10.0 mi West 44.9 mph 52.9 mph N/A   Clear
1:35 AM 50.0 °F 37.4 °F 62% 29.79 in 10.0 mi West 48.3 mph 56.4 mph N/A   Clear
1:55 AM 50.0 °F 37.4 °F 62% 29.80 in 10.0 mi West 35.7 mph 56.4 mph N/A   Clear
2:15 AM 50.0 °F 35.6 °F 58% 29.81 in 10.0 mi West 39.1 mph 48.3 mph N/A   Clear
2:35 AM 50.0 °F 35.6 °F 58% 29.81 in 10.0 mi West 38.0 mph 49.5 mph N/A   Clear
2:55 AM 50.0 °F 35.6 °F 58% 29.80 in 10.0 mi West 36.8 mph 47.2 mph N/A   Clear
3:15 AM 50.0 °F 35.6 °F 58% 29.80 in 10.0 mi West 34.5 mph 46.0 mph N/A   Clear
3:35 AM 50.0 °F 35.6 °F 58% 29.80 in 10.0 mi West 35.7 mph 42.6 mph N/A   Clear
3:55 AM 50.0 °F 35.6 °F 58% 29.80 in 10.0 mi West 35.7 mph 40.3 mph N/A   Clear
4:15 AM 50.0 °F 35.6 °F 58% 29.79 in 10.0 mi West 33.4 mph 43.7 mph N/A   Clear
4:35 AM 48.2 °F 35.6 °F 62% 29.81 in 10.0 mi West 29.9 mph 39.1 mph N/A   Clear
4:55 AM 48.2 °F 35.6 °F 62% 29.81 in 10.0 mi West 29.9 mph 41.4 mph N/A   Clear
5:15 AM 48.2 °F 35.6 °F 62% 29.85 in 10.0 mi NNW 13.8 mph 38.0 mph N/A   Clear
5:35 AM 50.0 °F 35.6 °F 58% 29.87 in 10.0 mi NNW 23.0 mph 31.1 mph N/A   Clear
5:55 AM 48.2 °F 35.6 °F 62% 29.87 in 10.0 mi NW 20.7 mph 27.6 mph N/A   Clear
6:15 AM 48.2 °F 35.6 °F 62% 29.86 in 10.0 mi West 26.5 mph 38.0 mph N/A   Clear
6:35 AM 48.2 °F 35.6 °F 62% 29.88 in 10.0 mi WNW 19.6 mph 35.7 mph N/A   Clear
6:55 AM 48.2 °F 33.8 °F 58% 29.89 in 10.0 mi WNW 16.1 mph - N/A   Clear
7:15 AM 48.2 °F 32.0 °F 54% 29.90 in 10.0 mi North 5.8 mph - N/A   Clear
7:55 AM 51.8 °F 32.0 °F 47% 29.91 in 10.0 mi West 9.2 mph - N/A   Clear
8:15 AM 53.6 °F 32.0 °F 44% 29.92 in 9.0 mi WNW 15.0 mph - N/A   Clear
8:55 AM 55.4 °F 32.0 °F 41% 29.93 in 10.0 mi West 20.7 mph - N/A   Clear
9:15 AM 55.4 °F 32.0 °F 41% 29.94 in 10.0 mi WNW 20.7 mph 24.2 mph N/A   Clear
9:35 AM 57.2 °F 32.0 °F 38% 29.94 in 10.0 mi WNW 16.1 mph - N/A   Clear
9:55 AM 59.0 °F 32.0 °F 36% 29.95 in 10.0 mi West 10.4 mph - N/A   Clear
10:35 AM 62.6 °F 30.2 °F 30% 29.95 in 10.0 mi WSW 8.1 mph - N/A   Clear
10:55 AM 62.6 °F 30.2 °F 30% 29.94 in 10.0 mi West 13.8 mph 17.3 mph N/A   Clear
11:15 AM 62.6 °F 30.2 °F 30% 29.94 in 10.0 mi WSW 9.2 mph 16.1 mph N/A   Clear
11:35 AM 62.6 °F 32.0 °F 32% 29.94 in 10.0 mi West 12.7 mph 16.1 mph N/A   Clear
11:55 AM 64.4 °F 30.2 °F 28% 29.94 in 10.0 mi West 8.1 mph - N/A   Clear
12:15 PM 62.6 °F 28.4 °F 27% 29.93 in 10.0 mi SW 6.9 mph - N/A   Clear
12:35 PM 66.2 °F 32.0 °F 28% 29.92 in 10.0 mi West 21.9 mph - N/A   Clear
12:55 PM 66.2 °F 32.0 °F 28% 29.91 in 10.0 mi West 23.0 mph 27.6 mph N/A   Clear
1:15 PM 66.2 °F 32.0 °F 28% 29.90 in 10.0 mi West 24.2 mph 28.8 mph N/A   Clear
1:35 PM 66.2 °F 32.0 °F 28% 29.91 in 10.0 mi West 24.2 mph - N/A   Clear
1:55 PM 64.4 °F 32.0 °F 30% 29.90 in 10.0 mi WSW 25.3 mph 35.7 mph N/A   Clear
2:15 PM 64.4 °F 32.0 °F 30% 29.90 in 10.0 mi WSW 26.5 mph 33.4 mph N/A   Clear
2:35 PM 62.6 °F 32.0 °F 32% 29.90 in 10.0 mi SW 21.9 mph 31.1 mph N/A   Clear
2:55 PM 64.4 °F 32.0 °F 30% 29.89 in 10.0 mi WSW 23.0 mph 28.8 mph N/A   Clear
3:15 PM 62.6 °F 32.0 °F 32% 29.89 in 10.0 mi SW 19.6 mph 29.9 mph N/A   Clear
3:35 PM 62.6 °F 30.2 °F 30% 29.89 in 10.0 mi SW 21.9 mph 25.3 mph N/A   Clear
3:55 PM 62.6 °F 28.4 °F 27% 29.88 in 10.0 mi SSW 18.4 mph 32.2 mph N/A   Clear
4:15 PM 62.6 °F 26.6 °F 26% 29.87 in 10.0 mi West 26.5 mph 33.4 mph N/A   Clear
4:35 PM 62.6 °F 26.6 °F 26% 29.87 in 10.0 mi West 20.7 mph 34.5 mph N/A   Clear
4:55 PM 62.6 °F 26.6 °F 26% 29.84 in 10.0 mi West 34.5 mph 44.9 mph N/A   Clear
5:15 PM 60.8 °F 26.6 °F 27% 29.82 in 10.0 mi West 36.8 mph 44.9 mph N/A   Clear
5:35 PM 59.0 °F 26.6 °F 29% 29.82 in 10.0 mi West 31.1 mph 49.5 mph N/A   Clear
5:55 PM 59.0 °F 26.6 °F 29% 29.82 in 10.0 mi West 35.7 mph 49.5 mph N/A   Clear
6:15 PM 57.2 °F 24.8 °F 29% 29.81 in 10.0 mi West 41.4 mph 49.5 mph N/A   Clear
6:35 PM 57.2 °F 24.8 °F 29% 29.80 in 10.0 mi West 40.3 mph 48.3 mph N/A   Clear
6:55 PM 55.4 °F 24.8 °F 31% 29.80 in 7.0 mi West 46.0 mph 54.1 mph N/A   Clear
7:15 PM 53.6 °F 26.6 °F 35% 29.80 in 9.0 mi West 46.0 mph 52.9 mph N/A   Clear
7:35 PM 51.8 °F 28.4 °F 41% 29.81 in 10.0 mi West 44.9 mph 50.6 mph N/A   Clear
7:50 PM 51.8 °F 30.2 °F 44% 29.82 in 10.0 mi West 44.9 mph 54.1 mph N/A   Clear
8:15 PM 50.0 °F 32.0 °F 50% 29.82 in 10.0 mi West 46.0 mph 52.9 mph N/A   Clear
8:35 PM 50.0 °F 32.0 °F 50% 29.83 in 10.0 mi West 42.6 mph 54.1 mph N/A   Clear
8:55 PM 50.0 °F 32.0 °F 50% 29.83 in 10.0 mi West 41.4 mph 54.1 mph N/A   Clear
9:15 PM 50.0 °F 32.0 °F 50% 29.85 in 10.0 mi West 39.1 mph 50.6 mph N/A   Clear
9:35 PM 50.0 °F 32.0 °F 50% 29.87 in 10.0 mi West 35.7 mph 48.3 mph N/A   Clear
9:55 PM 50.0 °F 32.0 °F 50% 29.87 in 10.0 mi West 39.1 mph 46.0 mph N/A   Clear
10:15 PM 50.0 °F 33.8 °F 54% 29.88 in 10.0 mi West 40.3 mph 49.5 mph N/A   Clear
10:35 PM 50.0 °F 33.8 °F 54% 29.89 in 10.0 mi West 40.3 mph 51.8 mph N/A   Clear
10:55 PM 50.0 °F 35.6 °F 58% 29.90 in 10.0 mi West 34.5 mph 46.0 mph N/A   Clear
11:15 PM 50.0 °F 33.8 °F 54% 29.90 in 10.0 mi West 36.8 mph 49.5 mph N/A   Clear
11:35 PM 50.0 °F 33.8 °F 54% 29.91 in 10.0 mi West 33.4 mph 43.7 mph N/A   Clear
11:55 PM 50.0 °F 33.8 °F 54% 29.92 in 10.0 mi West 31.1 mph 41.4 mph N/A   Clear